Time;durP1;ratioP1;P1;durP2;ratioP2;P2;SDS_P1;SDS_P2;PMS_P1;PMS_P2;Temp;Humidity;BMP_temperature;BMP_pressure;BME280_temperature;BME280_humidity;BME280_pressure;Samples;Min_cycle;Max_cycle;Signal;HPM_P1;HPM_P2
2022/07/09 00:01:20;;;;;;;19.65;12.88;;;;;;;20.19;64.14;100291.80;1823744;78;21196;-91
2022/07/09 00:03:47;;;;;;;23.27;11.75;;;;;;;20.18;64.44;100295.95;1823760;78;20947;-92
2022/07/09 00:06:14;;;;;;;13.10;11.45;;;;;;;20.15;64.67;100293.12;1822596;78;20887;-93
2022/07/09 00:08:40;;;;;;;18.50;11.00;;;;;;;20.13;64.79;100288.95;1820716;78;21440;-92
2022/07/09 00:11:08;;;;;;;16.45;11.15;;;;;;;20.08;65.02;100290.78;1820433;78;20990;-93
2022/07/09 00:13:37;;;;;;;20.35;11.65;;;;;;;20.04;65.21;100285.44;1820464;79;21244;-90
2022/07/09 00:18:28;;;;;;;17.95;12.20;;;;;;;19.96;66.02;100282.73;1798566;79;22711;-92
2022/07/09 00:20:56;;;;;;;18.98;12.05;;;;;;;19.86;66.32;100294.86;1764974;81;20952;-92
2022/07/09 00:23:24;;;;;;;23.25;12.58;;;;;;;19.80;66.40;100288.84;1758981;80;21219;-91
2022/07/09 00:25:52;;;;;;;18.25;13.00;;;;;;;19.75;66.08;100285.83;1758936;80;20853;-93
2022/07/09 00:28:21;;;;;;;20.15;11.88;;;;;;;19.70;66.07;100285.45;1758951;80;20912;-93
2022/07/09 00:30:49;;;;;;;21.30;13.08;;;;;;;19.65;66.28;100284.58;1758747;80;20890;-92
2022/07/09 00:33:17;;;;;;;16.93;12.15;;;;;;;19.63;66.49;100289.22;1758841;80;20904;-90
2022/07/09 00:35:44;;;;;;;15.53;11.40;;;;;;;19.60;66.57;100285.56;1758927;80;21761;-92
2022/07/09 00:38:14;;;;;;;18.65;12.20;;;;;;;19.57;66.58;100288.55;1758924;79;20987;-91
2022/07/09 00:40:42;;;;;;;18.95;13.53;;;;;;;19.53;66.61;100289.34;1760743;81;20889;-89
2022/07/09 00:43:19;;;;;;;17.15;12.13;;;;;;;19.49;66.58;100291.16;1760791;80;20930;-89
2022/07/09 00:45:46;;;;;;;15.70;11.20;;;;;;;19.46;66.40;100288.32;1758863;81;20924;-92
2022/07/09 00:48:14;;;;;;;14.47;11.55;;;;;;;19.42;66.21;100289.62;1759049;80;21239;-92
2022/07/09 00:50:42;;;;;;;15.28;11.48;;;;;;;19.36;66.12;100289.73;1758847;80;20956;-91
2022/07/09 00:53:21;;;;;;;12.98;11.30;;;;;;;19.33;66.17;100289.23;1758649;80;20932;-90
2022/07/09 00:55:48;;;;;;;17.80;11.65;;;;;;;19.29;66.56;100293.20;1758799;80;20971;-90
2022/07/09 00:58:18;;;;;;;14.47;11.97;;;;;;;19.24;66.96;100289.69;1758917;80;21002;-91
2022/07/09 01:00:45;;;;;;;19.25;11.90;;;;;;;19.20;67.16;100289.14;1758718;81;21135;-92
2022/07/09 01:03:12;;;;;;;19.95;10.65;;;;;;;19.18;67.11;100286.31;1758876;80;21319;-91
2022/07/09 01:05:40;;;;;;;15.88;10.15;;;;;;;19.16;67.06;100290.95;1758754;80;21015;-90
2022/07/09 01:08:08;;;;;;;16.17;10.53;;;;;;;19.14;66.91;100299.10;1758791;78;20920;-89
2022/07/09 01:10:35;;;;;;;12.53;10.98;;;;;;;19.12;66.73;100292.24;1764691;80;21468;-91
2022/07/09 01:13:05;;;;;;;15.28;10.80;;;;;;;19.10;66.69;100289.77;1758909;80;21854;-90
2022/07/09 01:15:32;;;;;;;17.80;10.85;;;;;;;19.10;66.74;100292.42;1759001;80;20916;-91
2022/07/09 01:17:59;;;;;;;14.90;11.15;;;;;;;19.07;66.93;100287.39;1758917;81;20935;-91
2022/07/09 01:20:31;;;;;;;20.92;12.03;;;;;;;19.07;67.13;100295.88;1759089;81;21013;-92
2022/07/09 01:22:58;;;;;;;21.97;13.00;;;;;;;19.04;67.35;100295.69;1759313;81;20967;-91
2022/07/09 01:25:46;;;;;;;17.30;11.20;;;;;;;19.01;67.52;100296.02;1759017;80;21137;-91
2022/07/09 01:28:13;;;;;;;17.02;11.40;;;;;;;18.95;67.69;100293.47;1758917;81;21362;-92
2022/07/09 01:30:40;;;;;;;16.65;12.30;;;;;;;18.92;67.94;100292.45;1758598;81;20884;-91
2022/07/09 01:33:08;;;;;;;15.05;10.93;;;;;;;18.89;68.20;100290.09;1758565;81;20934;-91
2022/07/09 01:35:36;;;;;;;14.90;10.48;;;;;;;18.86;68.28;100289.08;1759137;81;20877;-92
2022/07/09 01:38:03;;;;;;;13.15;11.03;;;;;;;18.84;68.37;100291.05;1758599;80;21192;-90
2022/07/09 01:40:30;;;;;;;18.57;10.58;;;;;;;18.81;68.43;100288.22;1759746;80;20884;-88
2022/07/09 01:42:57;;;;;;;23.92;10.65;;;;;;;18.80;68.64;100287.86;1760561;81;20929;-88
2022/07/09 01:45:24;;;;;;;13.62;9.90;;;;;;;18.78;68.59;100291.66;1759085;81;21038;-92
2022/07/09 01:47:52;;;;;;;15.98;9.93;;;;;;;18.75;68.61;100295.43;1758581;81;20892;-91
2022/07/09 01:50:19;;;;;;;22.07;11.33;;;;;;;18.74;68.70;100292.45;1758575;81;21238;-91
2022/07/09 01:52:46;;;;;;;21.93;12.03;;;;;;;18.73;68.58;100299.23;1758562;80;20912;-91
2022/07/09 01:55:13;;;;;;;14.83;11.57;;;;;;;18.69;68.54;100296.03;1741607;81;20912;-91
2022/07/09 01:57:39;;;;;;;14.58;11.18;;;;;;;18.68;68.62;100303.67;1758384;81;20882;-91
2022/07/09 02:00:07;;;;;;;30.97;12.53;;;;;;;18.65;68.73;100310.60;1758903;81;20956;-90
2022/07/09 02:02:41;;;;;;;34.43;11.45;;;;;;;18.62;68.87;100315.73;1759034;81;20880;-92
2022/07/09 02:05:09;;;;;;;17.05;10.18;;;;;;;18.59;68.97;100329.83;1758481;81;20936;-91
2022/07/09 02:07:36;;;;;;;17.42;11.05;;;;;;;18.54;69.15;100321.45;1758674;80;20904;-91
2022/07/09 02:10:04;;;;;;;18.42;10.72;;;;;;;18.49;69.21;100329.88;1758786;81;21389;-92
2022/07/09 02:12:32;;;;;;;25.55;10.82;;;;;;;18.46;69.03;100327.53;1759969;81;20904;-89
2022/07/09 02:15:00;;;;;;;14.85;11.00;;;;;;;18.43;68.87;100322.50;1759917;81;21247;-90
2022/07/09 02:17:27;;;;;;;21.35;11.60;;;;;;;18.41;69.02;100335.13;1754268;80;20953;-91
2022/07/09 02:19:55;;;;;;;27.40;12.18;;;;;;;18.41;69.29;100340.43;1745367;81;20980;-92
2022/07/09 02:22:21;;;;;;;19.52;13.45;;;;;;;18.42;69.33;100337.61;1745255;81;20917;-91
2022/07/09 02:24:48;;;;;;;23.18;13.22;;;;;;;18.44;69.40;100337.47;1745392;81;21433;-92
2022/07/09 02:27:16;;;;;;;27.35;11.43;;;;;;;18.47;69.25;100340.31;1745415;80;21256;-91
2022/07/09 02:29:43;;;;;;;29.35;14.30;;;;;;;18.49;69.15;100337.02;1745265;81;20921;-91
2022/07/09 02:32:11;;;;;;;22.13;11.83;;;;;;;18.51;69.22;100341.69;1745847;81;20932;-91
2022/07/09 02:34:38;;;;;;;21.35;12.25;;;;;;;18.54;69.39;100339.58;1745191;81;20976;-90
2022/07/09 02:37:06;;;;;;;19.95;12.25;;;;;;;18.57;69.71;100341.92;1745632;81;20975;-89
2022/07/09 02:39:33;;;;;;;20.40;12.60;;;;;;;18.61;69.94;100339.80;1746002;81;21161;-88
2022/07/09 02:42:00;;;;;;;21.15;12.23;;;;;;;18.63;70.06;100339.13;1746577;81;20921;-91
2022/07/09 02:44:28;;;;;;;17.17;12.40;;;;;;;18.67;70.66;100339.17;1747644;82;20897;-92
2022/07/09 02:46:55;;;;;;;34.05;13.18;;;;;;;18.71;71.01;100343.20;1745856;81;20928;-92
2022/07/09 02:49:23;;;;;;;24.00;12.05;;;;;;;18.76;71.43;100342.25;1745850;81;20921;-92
2022/07/09 02:51:51;;;;;;;19.80;13.22;;;;;;;18.82;71.90;100335.53;1746109;81;21136;-91
2022/07/09 02:54:18;;;;;;;21.00;13.83;;;;;;;18.87;72.08;100335.91;1745583;81;20993;-91
2022/07/09 02:56:45;;;;;;;17.80;13.03;;;;;;;18.93;72.53;100329.98;1745611;81;21442;-92
2022/07/09 02:59:12;;;;;;;19.35;13.88;;;;;;;19.02;73.12;100342.84;1747003;81;20861;-92
2022/07/09 03:01:40;;;;;;;18.55;13.35;;;;;;;19.11;73.84;100341.09;1747223;82;21442;-89
2022/07/09 03:04:07;;;;;;;22.50;12.90;;;;;;;19.22;74.38;100343.50;1745551;81;21228;-90
2022/07/09 03:06:35;;;;;;;20.55;13.15;;;;;;;19.31;74.60;100341.73;1746907;81;21003;-91
2022/07/09 03:09:03;;;;;;;15.83;12.18;;;;;;;19.40;74.98;100345.62;1746215;81;20834;-91
2022/07/09 03:11:30;;;;;;;17.77;13.25;;;;;;;19.49;75.23;100345.67;1745609;81;20932;-91
2022/07/09 03:13:57;;;;;;;16.50;12.50;;;;;;;19.57;75.73;100350.55;1745314;81;20968;-91
2022/07/09 03:16:24;;;;;;;13.60;11.88;;;;;;;19.66;76.07;100352.27;1745084;81;21229;-90
2022/07/09 03:18:51;;;;;;;18.30;12.33;;;;;;;19.78;76.17;100351.52;1744922;81;21311;-90
2022/07/09 03:21:19;;;;;;;13.53;12.05;;;;;;;19.89;76.50;100351.74;1745056;81;20893;-91
2022/07/09 03:23:46;;;;;;;18.73;13.28;;;;;;;20.02;76.33;100345.98;1745244;81;21382;-91
2022/07/09 03:26:13;;;;;;;19.77;12.73;;;;;;;20.15;76.03;100361.52;1745233;81;20877;-92
2022/07/09 03:28:40;;;;;;;17.75;13.15;;;;;;;20.24;75.84;100357.38;1746142;81;21133;-92
2022/07/09 03:31:08;;;;;;;18.27;13.32;;;;;;;20.35;75.60;100354.92;1747586;81;20987;-91
2022/07/09 03:33:36;;;;;;;17.90;12.80;;;;;;;20.47;75.49;100354.11;1747081;82;20795;-91
2022/07/09 03:36:03;;;;;;;16.80;12.82;;;;;;;20.59;75.34;100358.69;1737347;78;20964;-91
2022/07/09 03:38:31;;;;;;;84.05;18.17;;;;;;;20.69;75.06;100360.17;1747699;78;20882;-91
2022/07/09 03:40:58;;;;;;;19.62;13.08;;;;;;;20.79;74.80;100365.87;1746962;81;21251;-89
2022/07/09 03:43:25;;;;;;;14.65;13.32;;;;;;;20.87;74.57;100357.36;1746635;78;20853;-89
2022/07/09 03:45:52;;;;;;;22.93;12.20;;;;;;;20.97;74.37;100355.06;1747811;78;20909;-90
2022/07/09 03:48:19;;;;;;;17.87;12.50;;;;;;;21.06;74.18;100357.55;1746814;81;20893;-90
2022/07/09 03:50:46;;;;;;;17.40;12.33;;;;;;;21.15;73.98;100359.72;1746462;80;20949;-88
2022/07/09 03:53:13;;;;;;;14.43;12.55;;;;;;;21.24;73.73;100359.22;1745933;81;21028;-90
2022/07/09 03:55:40;;;;;;;19.32;13.48;;;;;;;21.31;73.52;100353.03;1745286;82;21291;-92
2022/07/09 03:58:08;;;;;;;16.25;13.28;;;;;;;21.41;73.30;100353.38;1745269;81;20956;-91
2022/07/09 04:00:35;;;;;;;20.10;13.88;;;;;;;21.49;73.01;100350.70;1745141;81;20999;-92
2022/07/09 04:03:02;;;;;;;17.48;13.65;;;;;;;21.58;72.74;100351.02;1745347;81;20889;-91
2022/07/09 04:05:29;;;;;;;21.55;13.15;;;;;;;21.68;72.45;100346.84;1745071;80;21152;-93
2022/07/09 04:07:57;;;;;;;14.05;12.47;;;;;;;21.77;72.25;100345.80;1745170;81;20979;-92
2022/07/09 04:10:25;;;;;;;14.45;12.58;;;;;;;21.87;72.01;100345.59;1745049;81;20933;-91
2022/07/09 04:12:52;;;;;;;14.45;12.98;;;;;;;21.96;71.67;100352.56;1745101;81;20898;-91
2022/07/09 04:15:19;;;;;;;15.53;13.95;;;;;;;22.05;71.43;100353.36;1745118;81;20945;-90
2022/07/09 04:17:46;;;;;;;14.95;12.23;;;;;;;22.18;71.35;100356.31;1747606;80;21130;-90
2022/07/09 04:20:13;;;;;;;14.10;12.70;;;;;;;22.41;70.77;100354.22;1758444;81;20916;-91
2022/07/09 04:22:40;;;;;;;17.30;13.35;;;;;;;22.64;69.97;100352.41;1758313;80;20897;-90
2022/07/09 04:25:08;;;;;;;13.80;12.53;;;;;;;23.00;69.15;100357.70;1758638;80;20893;-90
2022/07/09 04:27:38;;;;;;;13.83;12.43;;;;;;;23.51;67.84;100365.42;1758453;80;20920;-90
2022/07/09 04:30:08;;;;;;;14.03;12.63;;;;;;;24.03;66.40;100361.53;1758621;81;21244;-91
2022/07/09 04:32:37;;;;;;;16.20;12.68;;;;;;;24.59;64.92;100353.27;1758511;80;20968;-91
2022/07/09 04:35:04;;;;;;;14.68;12.73;;;;;;;25.18;63.05;100352.14;1758465;80;20893;-92
2022/07/09 04:37:31;;;;;;;13.80;11.08;;;;;;;25.73;61.30;100356.38;1758459;81;21406;-89
2022/07/09 04:39:58;;;;;;;13.38;11.83;;;;;;;26.28;59.65;100362.33;1758906;81;20943;-89
2022/07/09 04:42:25;;;;;;;13.45;11.63;;;;;;;26.77;57.97;100355.86;1758842;80;21793;-91
2022/07/09 04:44:52;;;;;;;14.43;12.68;;;;;;;27.17;56.53;100355.87;1758823;81;20866;-91
2022/07/09 04:47:19;;;;;;;21.12;11.48;;;;;;;27.56;55.64;100362.31;1758875;81;20928;-92
2022/07/09 04:49:46;;;;;;;13.32;11.83;;;;;;;27.93;54.51;100359.45;1758522;81;20889;-90
2022/07/09 04:52:17;;;;;;;17.35;12.25;;;;;;;28.30;53.38;100358.34;1758865;81;20908;-92
2022/07/09 04:54:43;;;;;;;13.38;11.43;;;;;;;28.66;52.38;100354.25;1758899;81;21378;-92
2022/07/09 04:57:10;;;;;;;13.08;11.63;;;;;;;28.99;51.29;100347.77;1758316;81;20928;-91
2022/07/09 04:59:37;;;;;;;13.62;12.23;;;;;;;29.30;50.52;100345.05;1758763;80;20920;-91
2022/07/09 05:02:05;;;;;;;13.65;11.75;;;;;;;29.59;49.62;100344.53;1758505;81;21390;-92
2022/07/09 05:04:32;;;;;;;12.40;10.35;;;;;;;29.82;49.12;100340.68;1758669;81;21299;-92
2022/07/09 05:07:00;;;;;;;13.75;11.00;;;;;;;30.13;48.37;100341.55;1758615;80;20924;-92
2022/07/09 05:09:27;;;;;;;12.35;11.12;;;;;;;30.44;47.68;100334.27;1758921;81;20940;-92
2022/07/09 05:11:54;;;;;;;15.93;12.20;;;;;;;30.74;46.83;100331.55;1758661;80;20919;-92
2022/07/09 05:14:22;;;;;;;12.33;11.12;;;;;;;31.02;46.34;100331.45;1758802;81;20884;-94
2022/07/09 05:16:49;;;;;;;11.18;9.90;;;;;;;31.32;45.48;100331.33;1759025;81;20940;-93
2022/07/09 05:19:15;;;;;;;13.72;11.03;;;;;;;31.52;44.83;100336.41;1749718;80;21286;-93
2022/07/09 05:21:42;;;;;;;13.03;11.73;;;;;;;31.71;44.61;100331.14;1745585;81;21862;-93
2022/07/09 05:24:10;;;;;;;12.13;10.85;;;;;;;31.90;44.22;100330.97;1745412;81;20893;-93
2022/07/09 05:26:37;;;;;;;12.23;10.45;;;;;;;32.07;43.84;100324.30;1745451;81;20983;-93
2022/07/09 05:29:04;;;;;;;14.38;10.85;;;;;;;32.31;43.37;100320.41;1745438;81;20896;-93
2022/07/09 05:31:31;;;;;;;12.13;11.00;;;;;;;32.57;42.92;100319.53;1745622;81;21174;-92
2022/07/09 05:34:00;;;;;;;13.50;12.10;;;;;;;32.74;42.32;100314.13;1745336;80;20925;-92
2022/07/09 05:36:30;;;;;;;12.55;11.00;;;;;;;32.80;41.96;100308.52;1745456;81;20936;-92
2022/07/09 05:38:57;;;;;;;12.25;11.15;;;;;;;32.86;41.50;100311.31;1745450;81;20984;-91
2022/07/09 05:41:24;;;;;;;11.10;9.93;;;;;;;32.97;41.23;100314.48;1745503;81;21311;-93
2022/07/09 05:43:52;;;;;;;12.43;11.33;;;;;;;33.11;40.92;100306.86;1746612;81;21961;-89
2022/07/09 05:46:20;;;;;;;12.18;11.10;;;;;;;33.30;40.68;100306.03;1746396;81;20956;-90
2022/07/09 05:48:47;;;;;;;11.40;10.30;;;;;;;33.44;39.87;100302.70;1746481;81;20877;-93
2022/07/09 05:51:14;;;;;;;15.90;10.65;;;;;;;33.52;39.65;100303.34;1746043;81;20920;-93
2022/07/09 05:53:41;;;;;;;12.55;11.35;;;;;;;33.54;39.75;100293.03;1745763;81;20881;-93
2022/07/09 05:56:08;;;;;;;17.37;11.18;;;;;;;33.68;39.53;100305.73;1745573;81;21088;-93
2022/07/09 05:58:37;;;;;;;15.63;10.53;;;;;;;33.88;39.02;100309.24;1745266;81;21480;-91
2022/07/09 06:01:05;;;;;;;14.25;10.45;;;;;;;34.02;38.73;100296.36;1745682;81;20857;-92
2022/07/09 06:03:32;;;;;;;11.57;10.48;;;;;;;34.11;38.35;100305.47;1745398;81;20900;-93
2022/07/09 06:06:00;;;;;;;12.53;11.33;;;;;;;34.08;38.41;100298.58;1746711;81;20980;-89
2022/07/09 06:08:26;;;;;;;15.13;11.20;;;;;;;34.10;38.41;100291.53;1747577;81;21228;-92
2022/07/09 06:10:54;;;;;;;12.58;11.45;;;;;;;34.19;38.54;100292.19;1747119;81;20900;-92
2022/07/09 06:13:21;;;;;;;11.83;10.78;;;;;;;34.37;38.48;100293.72;1747196;81;20913;-91
2022/07/09 06:15:48;;;;;;;13.48;12.20;;;;;;;34.56;38.06;100294.73;1746001;81;20923;-94
2022/07/09 06:18:16;;;;;;;12.88;11.68;;;;;;;34.77;37.67;100282.11;1747129;80;20996;-94
2022/07/09 06:20:43;;;;;;;14.07;11.38;;;;;;;35.01;37.14;100288.00;1758935;81;21205;-94
2022/07/09 06:23:10;;;;;;;12.68;11.35;;;;;;;35.30;36.78;100284.37;1758586;80;20975;-96
2022/07/09 06:25:37;;;;;;;13.98;10.95;;;;;;;35.52;36.29;100284.22;1759193;81;21002;-93
2022/07/09 06:28:06;;;;;;;12.90;11.48;;;;;;;35.60;35.94;100278.80;1759397;80;20931;-92
2022/07/09 06:30:36;;;;;;;13.90;11.03;;;;;;;35.70;35.71;100278.30;1759573;81;20837;-93
2022/07/09 06:33:03;;;;;;;13.15;11.00;;;;;;;35.93;35.65;100277.58;1759237;81;21971;-93
2022/07/09 06:35:32;;;;;;;13.28;11.28;;;;;;;36.09;35.15;100271.05;1758892;81;20893;-93
2022/07/09 06:38:00;;;;;;;11.93;10.72;;;;;;;36.20;34.89;100271.92;1759364;81;20963;-93
2022/07/09 06:40:29;;;;;;;15.98;14.58;;;;;;;36.38;34.57;100265.66;1759176;81;20936;-93
2022/07/09 06:42:56;;;;;;;12.78;11.48;;;;;;;36.63;33.85;100264.30;1759464;81;20995;-91
2022/07/09 06:45:25;;;;;;;11.70;10.43;;;;;;;36.86;33.37;100262.08;1758971;81;21228;-88
2022/07/09 06:47:53;;;;;;;13.03;10.35;;;;;;;37.03;33.37;100257.69;1761047;81;20916;-89
2022/07/09 06:50:20;;;;;;;11.12;9.80;;;;;;;37.21;32.71;100254.37;1760295;81;20928;-92
2022/07/09 06:52:47;;;;;;;11.50;10.40;;;;;;;37.45;32.18;100251.81;1759329;81;21007;-94
2022/07/09 06:55:14;;;;;;;11.83;10.70;;;;;;;37.54;32.14;100243.84;1759022;81;21334;-93
2022/07/09 06:57:40;;;;;;;11.45;10.45;;;;;;;37.61;31.88;100249.05;1759045;81;21152;-91
2022/07/09 07:00:08;;;;;;;11.85;10.53;;;;;;;37.60;31.69;100239.18;1758701;80;20888;-92
2022/07/09 07:02:36;;;;;;;13.30;10.78;;;;;;;37.71;31.53;100244.34;1758967;80;20943;-93
2022/07/09 07:05:04;;;;;;;13.25;11.00;;;;;;;37.67;31.25;100233.68;1758859;81;20881;-93
2022/07/09 07:07:31;;;;;;;15.45;10.30;;;;;;;37.71;31.19;100233.39;1758893;81;20876;-93
2022/07/09 07:09:58;;;;;;;11.25;10.32;;;;;;;37.82;31.06;100236.89;1758910;81;21128;-92
2022/07/09 07:12:26;;;;;;;19.20;11.03;;;;;;;37.97;30.89;100231.84;1758662;81;21003;-90
2022/07/09 07:14:53;;;;;;;13.80;10.15;;;;;;;38.22;30.58;100233.63;1759007;81;20877;-92
2022/07/09 07:17:20;;;;;;;14.87;10.88;;;;;;;38.41;30.38;100231.55;1759424;81;20908;-93
2022/07/09 07:19:47;;;;;;;11.00;10.00;;;;;;;38.52;29.48;100231.75;1758760;78;20880;-91
2022/07/09 07:22:15;;;;;;;11.38;10.35;;;;;;;38.46;29.00;100229.55;1759685;81;20929;-93
2022/07/09 07:24:43;;;;;;;12.70;10.20;;;;;;;38.33;29.00;100224.22;1759659;81;20915;-92
2022/07/09 07:27:11;;;;;;;12.05;10.08;;;;;;;38.40;28.97;100227.15;1758964;81;20869;-92
2022/07/09 07:29:39;;;;;;;15.23;10.03;;;;;;;38.41;28.96;100230.17;1758909;80;20936;-93
2022/07/09 07:32:07;;;;;;;13.22;9.98;;;;;;;38.49;28.45;100227.66;1758914;80;21015;-92
2022/07/09 07:34:34;;;;;;;16.93;9.78;;;;;;;38.67;27.97;100223.94;1758962;80;21162;-90
2022/07/09 07:37:02;;;;;;;16.45;9.20;;;;;;;38.71;28.11;100227.70;1760501;81;21357;-89
2022/07/09 07:39:29;;;;;;;10.08;9.00;;;;;;;38.81;28.25;100228.17;1760359;81;21425;-89
2022/07/09 07:41:56;;;;;;;13.72;10.18;;;;;;;38.94;27.74;100220.66;1760010;81;20968;-90
2022/07/09 07:44:24;;;;;;;10.48;8.95;;;;;;;38.99;27.06;100217.84;1759542;81;20873;-90
2022/07/09 07:46:51;;;;;;;11.18;8.78;;;;;;;38.99;27.10;100213.73;1759483;81;21145;-90
2022/07/09 07:49:18;;;;;;;9.75;8.30;;;;;;;39.14;26.58;100217.67;1759448;81;21393;-90
2022/07/09 07:51:46;;;;;;;11.30;8.95;;;;;;;39.19;25.79;100208.55;1759802;81;21019;-91
2022/07/09 07:54:13;;;;;;;13.60;9.25;;;;;;;39.14;25.87;100204.52;1759060;81;20927;-93
2022/07/09 07:56:40;;;;;;;14.30;9.30;;;;;;;39.10;25.90;100211.13;1758979;80;20888;-92
2022/07/09 07:59:07;;;;;;;12.63;8.43;;;;;;;39.06;26.08;100197.73;1759039;80;21882;-91
2022/07/09 08:01:34;;;;;;;13.38;8.60;;;;;;;39.20;26.13;100203.34;1758803;81;20877;-93
2022/07/09 08:04:01;;;;;;;12.13;8.45;;;;;;;39.38;25.51;100194.91;1758588;81;20892;-91
2022/07/09 08:06:29;;;;;;;16.60;7.15;;;;;;;39.46;25.47;100194.23;1758519;81;20971;-93
2022/07/09 08:08:57;;;;;;;10.10;7.90;;;;;;;39.56;25.41;100198.22;1758700;81;21011;-90
2022/07/09 08:11:23;;;;;;;12.90;6.95;;;;;;;39.68;24.94;100195.02;1758700;81;21920;-90
2022/07/09 08:13:50;;;;;;;9.48;7.80;;;;;;;39.78;24.63;100197.62;1758624;81;20968;-90
2022/07/09 08:16:18;;;;;;;15.90;7.28;;;;;;;39.89;24.30;100191.45;1758506;81;20979;-91
2022/07/09 08:18:45;;;;;;;10.70;6.80;;;;;;;40.07;23.51;100193.91;1757668;80;21366;-91
2022/07/09 08:21:12;;;;;;;17.05;6.95;;;;;;;40.27;23.34;100190.02;1745606;81;20916;-90
2022/07/09 08:23:51;;;;;;;12.25;7.22;;;;;;;40.48;23.38;100189.66;1745342;80;21095;-90
2022/07/09 08:26:21;;;;;;;13.45;6.72;;;;;;;40.55;22.66;100189.49;1745085;81;20937;-91
2022/07/09 08:28:48;;;;;;;11.70;6.28;;;;;;;40.57;22.37;100190.58;1744905;81;21378;-92
2022/07/09 08:31:18;;;;;;;12.78;6.62;;;;;;;40.50;22.25;100187.42;1745342;81;20976;-90
2022/07/09 08:33:45;;;;;;;9.85;5.80;;;;;;;40.47;22.17;100176.47;1745258;81;21455;-90
2022/07/09 08:36:12;;;;;;;11.35;6.60;;;;;;;40.60;21.95;100177.61;1745241;80;21136;-89
2022/07/09 08:38:39;;;;;;;8.05;6.25;;;;;;;40.83;21.84;100172.25;1745098;82;20885;-92
2022/07/09 08:41:06;;;;;;;11.08;5.37;;;;;;;40.92;21.74;100167.09;1745496;81;20968;-90
2022/07/09 08:43:35;;;;;;;8.03;5.10;;;;;;;41.02;21.10;100170.18;1745375;81;20952;-89
2022/07/09 08:46:02;;;;;;;10.88;6.03;;;;;;;41.19;21.11;100167.64;1745438;81;20940;-90
2022/07/09 08:48:34;;;;;;;13.58;5.25;;;;;;;41.12;20.38;100166.42;1735100;82;21277;-89
2022/07/09 08:51:03;;;;;;;6.67;4.87;;;;;;;40.91;19.84;100162.73;1746794;81;20909;-90
2022/07/09 08:53:30;;;;;;;7.22;4.85;;;;;;;40.72;20.40;100164.77;1747034;82;20881;-91
2022/07/09 08:55:58;;;;;;;9.30;5.35;;;;;;;40.70;20.32;100154.06;1747610;81;20941;-92
2022/07/09 08:58:25;;;;;;;8.93;4.75;;;;;;;40.51;20.57;100154.14;1747688;81;20896;-92
2022/07/09 09:00:51;;;;;;;5.87;4.50;;;;;;;40.33;20.64;100157.75;1746791;81;21833;-92
2022/07/09 09:03:19;;;;;;;65.83;60.45;;;;;;;40.09;20.40;100152.37;1745583;81;21426;-91
2022/07/09 09:05:48;;;;;;;9.23;5.72;;;;;;;39.79;20.46;100144.31;1745782;81;21055;-94
2022/07/09 09:08:21;;;;;;;15.78;12.13;;;;;;;39.70;19.53;100143.94;1730576;82;20906;-92
2022/07/09 09:10:49;;;;;;;31.87;28.92;;;;;;;39.62;19.50;100142.66;1745600;81;20945;-92
2022/07/09 09:13:17;;;;;;;10.32;6.15;;;;;;;39.63;19.61;100142.94;1745602;81;21699;-92
2022/07/09 09:15:44;;;;;;;8.15;4.28;;;;;;;39.70;19.08;100134.33;1746458;81;20882;-89
2022/07/09 09:18:13;;;;;;;9.78;3.95;;;;;;;39.77;18.97;100141.05;1746357;81;20929;-92
2022/07/09 09:20:46;;;;;;;8.48;3.65;;;;;;;39.94;18.72;100130.94;1745718;81;20916;-93
2022/07/09 09:23:18;;;;;;;9.23;5.42;;;;;;;40.11;18.40;100130.38;1745646;81;20862;-91
2022/07/09 09:25:45;;;;;;;10.25;3.37;;;;;;;40.28;18.64;100118.02;1746057;82;21284;-91
2022/07/09 09:28:14;;;;;;;5.25;3.22;;;;;;;40.46;18.03;100117.67;1745412;81;20834;-90
2022/07/09 09:30:46;;;;;;;6.25;3.67;;;;;;;40.55;17.87;100108.97;1745429;81;20905;-92
2022/07/09 09:33:15;;;;;;;8.60;2.85;;;;;;;40.76;17.96;100112.16;1745613;81;21489;-91
2022/07/09 09:35:44;;;;;;;10.15;2.70;;;;;;;40.88;17.26;100111.63;1745476;81;20970;-92
2022/07/09 09:38:11;;;;;;;9.40;2.37;;;;;;;40.98;17.36;100108.10;1745433;81;21979;-92
2022/07/09 09:40:42;;;;;;;8.73;2.67;;;;;;;40.98;17.00;100116.92;1745463;81;20909;-92
2022/07/09 09:43:09;;;;;;;4.92;2.42;;;;;;;40.95;16.67;100110.64;1745557;81;20977;-91
2022/07/09 09:45:38;;;;;;;4.70;1.95;;;;;;;40.77;16.76;100109.08;1746120;81;21019;-93
2022/07/09 09:48:06;;;;;;;6.15;2.00;;;;;;;40.58;16.36;100107.80;1745730;81;20979;-93
2022/07/09 09:50:33;;;;;;;12.78;2.30;;;;;;;40.35;16.46;100099.98;1746437;79;21149;-89
2022/07/09 09:53:00;;;;;;;4.17;2.12;;;;;;;40.33;16.94;100105.00;1747228;81;20909;-92
2022/07/09 09:55:27;;;;;;;6.60;2.70;;;;;;;40.21;17.36;100103.27;1746606;80;20968;-93
2022/07/09 09:57:54;;;;;;;4.92;2.27;;;;;;;40.05;17.71;100106.05;1746150;81;20857;-94
2022/07/09 10:00:21;;;;;;;13.85;3.08;;;;;;;39.79;17.50;100106.44;1745958;82;20885;-92
2022/07/09 10:02:50;;;;;;;9.35;2.10;;;;;;;39.46;17.96;100098.73;1734938;82;21138;-93
2022/07/09 10:05:17;;;;;;;6.45;2.62;;;;;;;39.23;17.89;100095.75;1745675;81;20885;-93
2022/07/09 10:07:45;;;;;;;101.12;91.57;;;;;;;39.25;18.08;100101.77;1745735;81;21027;-93
2022/07/09 10:10:19;;;;;;;49.42;39.48;;;;;;;39.35;18.40;100089.28;1745731;81;20940;-92
2022/07/09 10:12:48;;;;;;;10.60;5.05;;;;;;;39.53;18.49;100082.70;1745870;81;21413;-92
2022/07/09 10:15:28;;;;;;;8.23;2.55;;;;;;;39.71;18.20;100088.73;1745725;81;22023;-93
2022/07/09 10:17:57;;;;;;;12.05;2.10;;;;;;;39.73;17.97;100089.25;1745718;82;20995;-93
2022/07/09 10:20:33;;;;;;;7.47;4.05;;;;;;;39.61;17.32;100087.52;1752742;81;20964;-91
2022/07/09 10:23:03;;;;;;;5.20;2.52;;;;;;;39.54;17.63;100081.60;1761054;81;20928;-90
2022/07/09 10:25:34;;;;;;;8.23;3.12;;;;;;;39.58;17.93;100081.27;1759313;81;20923;-93
2022/07/09 10:28:01;;;;;;;16.45;2.87;;;;;;;39.71;18.03;100081.88;1757908;81;21253;-91
2022/07/09 10:30:33;;;;;;;4.85;2.65;;;;;;;39.84;17.43;100076.17;1758738;81;21437;-93
2022/07/09 10:33:12;;;;;;;8.38;2.67;;;;;;;39.86;17.62;100068.45;1758984;81;21342;-93
2022/07/09 10:35:48;;;;;;;5.12;2.50;;;;;;;39.92;17.69;100063.13;1759017;81;20932;-93
2022/07/09 10:38:15;;;;;;;8.55;2.67;;;;;;;40.08;17.79;100065.60;1758694;81;21365;-93
2022/07/09 10:40:47;;;;;;;13.05;5.45;;;;;;;40.10;17.61;100059.25;1767206;81;22043;-93
2022/07/09 10:43:15;;;;;;;9.98;2.25;;;;;;;40.23;17.62;100054.32;1759062;81;20872;-93
2022/07/09 10:45:44;;;;;;;5.80;2.52;;;;;;;40.17;17.47;100058.28;1758946;81;20936;-94
2022/07/09 10:48:15;;;;;;;6.55;2.52;;;;;;;40.16;17.34;100047.05;1758968;81;20845;-94
2022/07/09 10:50:43;;;;;;;13.68;4.92;;;;;;;40.15;17.76;100047.58;1758586;81;20889;-92
2022/07/09 10:53:12;;;;;;;7.60;2.47;;;;;;;40.27;17.68;100039.45;1759323;80;21958;-91
2022/07/09 10:55:48;;;;;;;13.10;4.12;;;;;;;40.45;17.41;100040.47;1759317;81;21421;-91
2022/07/09 10:58:19;;;;;;;9.35;3.35;;;;;;;40.53;17.59;100042.48;1758243;81;21382;-94
2022/07/09 11:00:56;;;;;;;14.33;3.37;;;;;;;40.58;17.55;100041.83;1758702;81;21390;-95
2022/07/09 11:03:28;;;;;;;6.08;2.37;;;;;;;40.57;17.86;100037.44;1758997;81;20940;-92
2022/07/09 11:05:55;;;;;;;8.33;2.77;;;;;;;40.59;17.64;100033.01;1758890;81;21091;-93
2022/07/09 11:08:23;;;;;;;9.83;3.20;;;;;;;40.66;17.24;100023.78;1758532;81;20877;-92
2022/07/09 11:10:52;;;;;;;8.05;2.55;;;;;;;40.64;17.66;100027.39;1758524;81;20900;-92
2022/07/09 11:13:25;;;;;;;7.87;2.85;;;;;;;40.57;17.63;100023.69;1758709;81;20948;-93
2022/07/09 11:16:04;;;;;;;9.85;2.85;;;;;;;40.58;17.85;100021.20;1758589;80;20833;-93
2022/07/09 11:18:29;;;;;;;9.58;2.30;;;;;;;40.68;17.64;100023.48;1758332;80;21173;-93
2022/07/09 11:20:56;;;;;;;11.80;2.35;;;;;;;40.61;17.48;100015.65;1758721;81;20994;-92